sensor_id;sensor_type;location;lat;lon;timestamp;temperature;humidity
13332;DHT22;6735;51.456;12.626;2023-06-10T00:01:32;19.20;57.90
13332;DHT22;6735;51.456;12.626;2023-06-10T00:04:02;19.10;58.00
13332;DHT22;6735;51.456;12.626;2023-06-10T00:06:27;19.10;58.10
13332;DHT22;6735;51.456;12.626;2023-06-10T00:08:53;19.10;58.20
13332;DHT22;6735;51.456;12.626;2023-06-10T00:11:20;19.00;58.40
13332;DHT22;6735;51.456;12.626;2023-06-10T00:13:46;18.90;58.50
13332;DHT22;6735;51.456;12.626;2023-06-10T00:16:12;18.90;58.70
13332;DHT22;6735;51.456;12.626;2023-06-10T00:18:37;18.80;58.80
13332;DHT22;6735;51.456;12.626;2023-06-10T00:21:04;18.80;58.90
13332;DHT22;6735;51.456;12.626;2023-06-10T00:23:30;18.70;58.90
13332;DHT22;6735;51.456;12.626;2023-06-10T00:25:58;18.70;59.10
13332;DHT22;6735;51.456;12.626;2023-06-10T00:28:24;18.70;59.10
13332;DHT22;6735;51.456;12.626;2023-06-10T00:30:50;18.70;59.20
13332;DHT22;6735;51.456;12.626;2023-06-10T00:33:16;18.60;59.40
13332;DHT22;6735;51.456;12.626;2023-06-10T00:35:41;18.50;59.60
13332;DHT22;6735;51.456;12.626;2023-06-10T00:38:06;18.50;59.70
13332;DHT22;6735;51.456;12.626;2023-06-10T00:40:38;18.40;59.80
13332;DHT22;6735;51.456;12.626;2023-06-10T00:43:04;18.30;60.00
13332;DHT22;6735;51.456;12.626;2023-06-10T00:45:29;18.20;60.20
13332;DHT22;6735;51.456;12.626;2023-06-10T00:47:55;18.30;60.20
13332;DHT22;6735;51.456;12.626;2023-06-10T00:50:21;18.20;60.40
13332;DHT22;6735;51.456;12.626;2023-06-10T00:52:46;18.20;60.60
13332;DHT22;6735;51.456;12.626;2023-06-10T00:55:15;18.20;60.70
13332;DHT22;6735;51.456;12.626;2023-06-10T00:57:41;18.10;60.90
13332;DHT22;6735;51.456;12.626;2023-06-10T01:00:10;18.10;61.10
13332;DHT22;6735;51.456;12.626;2023-06-10T01:02:36;18.00;61.10
13332;DHT22;6735;51.456;12.626;2023-06-10T01:05:01;18.10;61.30
13332;DHT22;6735;51.456;12.626;2023-06-10T01:10:09;18.00;61.70
13332;DHT22;6735;51.456;12.626;2023-06-10T01:12:46;17.90;61.80
13332;DHT22;6735;51.456;12.626;2023-06-10T01:15:16;17.90;62.10
13332;DHT22;6735;51.456;12.626;2023-06-10T01:18:02;17.80;62.20
13332;DHT22;6735;51.456;12.626;2023-06-10T01:20:32;17.80;63.30
13332;DHT22;6735;51.456;12.626;2023-06-10T01:23:01;17.70;62.90
13332;DHT22;6735;51.456;12.626;2023-06-10T01:25:29;17.70;63.40
13332;DHT22;6735;51.456;12.626;2023-06-10T01:28:10;17.60;63.50
13332;DHT22;6735;51.456;12.626;2023-06-10T01:30:55;17.60;63.80
13332;DHT22;6735;51.456;12.626;2023-06-10T01:33:27;17.60;63.90
13332;DHT22;6735;51.456;12.626;2023-06-10T01:35:53;17.40;64.30
13332;DHT22;6735;51.456;12.626;2023-06-10T01:38:20;17.40;64.60
13332;DHT22;6735;51.456;12.626;2023-06-10T01:40:48;17.40;64.50
13332;DHT22;6735;51.456;12.626;2023-06-10T01:43:14;17.40;64.70
13332;DHT22;6735;51.456;12.626;2023-06-10T01:45:40;17.30;64.80
13332;DHT22;6735;51.456;12.626;2023-06-10T01:48:05;17.30;65.10
13332;DHT22;6735;51.456;12.626;2023-06-10T01:50:31;17.20;65.30
13332;DHT22;6735;51.456;12.626;2023-06-10T01:52:57;17.20;65.40
13332;DHT22;6735;51.456;12.626;2023-06-10T01:55:23;17.20;65.40
13332;DHT22;6735;51.456;12.626;2023-06-10T01:57:48;17.20;65.80
13332;DHT22;6735;51.456;12.626;2023-06-10T02:00:14;17.20;66.10
13332;DHT22;6735;51.456;12.626;2023-06-10T02:02:40;17.10;66.30
13332;DHT22;6735;51.456;12.626;2023-06-10T02:05:06;17.10;66.60
13332;DHT22;6735;51.456;12.626;2023-06-10T02:07:32;17.10;66.80
13332;DHT22;6735;51.456;12.626;2023-06-10T02:09:57;17.00;67.00
13332;DHT22;6735;51.456;12.626;2023-06-10T02:12:23;17.00;67.20
13332;DHT22;6735;51.456;12.626;2023-06-10T02:14:48;17.00;67.40
13332;DHT22;6735;51.456;12.626;2023-06-10T02:17:14;17.00;67.60
13332;DHT22;6735;51.456;12.626;2023-06-10T02:19:40;16.90;67.60
13332;DHT22;6735;51.456;12.626;2023-06-10T02:22:08;16.90;67.80
13332;DHT22;6735;51.456;12.626;2023-06-10T02:24:35;16.80;68.10
13332;DHT22;6735;51.456;12.626;2023-06-10T02:27:00;16.80;68.20
13332;DHT22;6735;51.456;12.626;2023-06-10T02:29:27;16.70;68.50
13332;DHT22;6735;51.456;12.626;2023-06-10T02:31:52;16.70;68.90
13332;DHT22;6735;51.456;12.626;2023-06-10T02:34:18;16.70;69.00
13332;DHT22;6735;51.456;12.626;2023-06-10T02:36:44;16.70;69.10
13332;DHT22;6735;51.456;12.626;2023-06-10T02:39:09;16.70;69.20
13332;DHT22;6735;51.456;12.626;2023-06-10T02:41:35;16.60;69.40
13332;DHT22;6735;51.456;12.626;2023-06-10T02:44:00;16.60;69.70
13332;DHT22;6735;51.456;12.626;2023-06-10T02:46:26;16.60;69.80
13332;DHT22;6735;51.456;12.626;2023-06-10T02:48:53;16.60;70.20
13332;DHT22;6735;51.456;12.626;2023-06-10T02:51:19;16.50;70.40
13332;DHT22;6735;51.456;12.626;2023-06-10T02:53:46;16.50;70.50
13332;DHT22;6735;51.456;12.626;2023-06-10T02:56:11;16.50;71.10
13332;DHT22;6735;51.456;12.626;2023-06-10T02:58:37;16.50;71.10
13332;DHT22;6735;51.456;12.626;2023-06-10T03:01:03;16.40;71.40
13332;DHT22;6735;51.456;12.626;2023-06-10T03:03:28;16.40;71.80
13332;DHT22;6735;51.456;12.626;2023-06-10T03:05:55;16.30;71.80
13332;DHT22;6735;51.456;12.626;2023-06-10T03:08:21;16.20;72.20
13332;DHT22;6735;51.456;12.626;2023-06-10T03:10:47;16.20;72.60
13332;DHT22;6735;51.456;12.626;2023-06-10T03:13:12;16.20;72.40
13332;DHT22;6735;51.456;12.626;2023-06-10T03:15:39;16.20;72.40
13332;DHT22;6735;51.456;12.626;2023-06-10T03:18:06;16.20;72.70
13332;DHT22;6735;51.456;12.626;2023-06-10T03:20:32;16.20;72.40
13332;DHT22;6735;51.456;12.626;2023-06-10T03:23:02;16.20;72.50
13332;DHT22;6735;51.456;12.626;2023-06-10T03:25:27;16.20;72.40
13332;DHT22;6735;51.456;12.626;2023-06-10T03:27:54;16.20;72.60
13332;DHT22;6735;51.456;12.626;2023-06-10T03:30:19;16.20;72.60
13332;DHT22;6735;51.456;12.626;2023-06-10T03:32:45;16.30;72.40
13332;DHT22;6735;51.456;12.626;2023-06-10T03:35:10;16.30;72.70
13332;DHT22;6735;51.456;12.626;2023-06-10T03:37:37;16.30;72.70
13332;DHT22;6735;51.456;12.626;2023-06-10T03:40:02;16.30;72.80
13332;DHT22;6735;51.456;12.626;2023-06-10T03:42:28;16.30;72.90
13332;DHT22;6735;51.456;12.626;2023-06-10T03:44:54;16.30;73.00
13332;DHT22;6735;51.456;12.626;2023-06-10T03:47:20;16.40;73.20
13332;DHT22;6735;51.456;12.626;2023-06-10T03:49:46;16.40;73.40
13332;DHT22;6735;51.456;12.626;2023-06-10T03:52:11;16.30;73.80
13332;DHT22;6735;51.456;12.626;2023-06-10T03:54:37;16.40;73.90
13332;DHT22;6735;51.456;12.626;2023-06-10T03:57:03;16.40;73.80
13332;DHT22;6735;51.456;12.626;2023-06-10T03:59:28;16.40;73.50
13332;DHT22;6735;51.456;12.626;2023-06-10T04:01:54;16.40;73.70
13332;DHT22;6735;51.456;12.626;2023-06-10T04:04:19;16.50;73.70
13332;DHT22;6735;51.456;12.626;2023-06-10T04:06:45;16.50;73.80
13332;DHT22;6735;51.456;12.626;2023-06-10T04:09:11;16.50;73.60
13332;DHT22;6735;51.456;12.626;2023-06-10T04:11:36;16.50;73.80
13332;DHT22;6735;51.456;12.626;2023-06-10T04:14:02;16.60;73.70
13332;DHT22;6735;51.456;12.626;2023-06-10T04:16:28;16.60;73.80
13332;DHT22;6735;51.456;12.626;2023-06-10T04:18:53;16.60;73.80
13332;DHT22;6735;51.456;12.626;2023-06-10T04:21:19;16.60;74.00
13332;DHT22;6735;51.456;12.626;2023-06-10T04:23:44;16.70;73.90
13332;DHT22;6735;51.456;12.626;2023-06-10T04:26:10;16.70;73.80
13332;DHT22;6735;51.456;12.626;2023-06-10T04:28:37;16.80;73.80
13332;DHT22;6735;51.456;12.626;2023-06-10T04:31:03;16.70;74.00
13332;DHT22;6735;51.456;12.626;2023-06-10T04:33:32;16.90;73.80
13332;DHT22;6735;51.456;12.626;2023-06-10T04:35:57;17.10;73.60
13332;DHT22;6735;51.456;12.626;2023-06-10T04:38:23;17.20;73.20
13332;DHT22;6735;51.456;12.626;2023-06-10T04:40:49;17.10;73.20
13332;DHT22;6735;51.456;12.626;2023-06-10T04:43:14;17.20;73.30
13332;DHT22;6735;51.456;12.626;2023-06-10T04:45:41;17.20;73.20
13332;DHT22;6735;51.456;12.626;2023-06-10T04:48:10;17.20;73.40
13332;DHT22;6735;51.456;12.626;2023-06-10T04:50:36;17.30;73.30
13332;DHT22;6735;51.456;12.626;2023-06-10T04:53:02;17.60;72.90
13332;DHT22;6735;51.456;12.626;2023-06-10T04:55:27;18.90;70.10
13332;DHT22;6735;51.456;12.626;2023-06-10T04:57:52;20.10;66.60
13332;DHT22;6735;51.456;12.626;2023-06-10T05:00:18;21.30;62.80
13332;DHT22;6735;51.456;12.626;2023-06-10T05:02:43;22.10;60.80
13332;DHT22;6735;51.456;12.626;2023-06-10T05:05:10;22.70;59.80
13332;DHT22;6735;51.456;12.626;2023-06-10T05:07:36;23.40;58.50
13332;DHT22;6735;51.456;12.626;2023-06-10T05:10:02;23.70;56.80
13332;DHT22;6735;51.456;12.626;2023-06-10T05:12:28;24.00;56.30
13332;DHT22;6735;51.456;12.626;2023-06-10T05:14:53;24.50;55.00
13332;DHT22;6735;51.456;12.626;2023-06-10T05:17:19;24.80;54.20
13332;DHT22;6735;51.456;12.626;2023-06-10T05:19:44;25.20;53.00
13332;DHT22;6735;51.456;12.626;2023-06-10T05:22:10;25.30;52.10
13332;DHT22;6735;51.456;12.626;2023-06-10T05:24:35;25.40;52.20
13332;DHT22;6735;51.456;12.626;2023-06-10T05:27:00;25.70;51.30
13332;DHT22;6735;51.456;12.626;2023-06-10T05:29:26;25.80;50.60
13332;DHT22;6735;51.456;12.626;2023-06-10T05:31:52;25.70;50.30
13332;DHT22;6735;51.456;12.626;2023-06-10T05:34:17;25.90;50.00
13332;DHT22;6735;51.456;12.626;2023-06-10T05:36:43;26.20;48.90
13332;DHT22;6735;51.456;12.626;2023-06-10T05:39:09;26.60;48.10
13332;DHT22;6735;51.456;12.626;2023-06-10T05:41:35;26.60;47.80
13332;DHT22;6735;51.456;12.626;2023-06-10T05:44:00;26.90;47.20
13332;DHT22;6735;51.456;12.626;2023-06-10T05:46:26;27.00;46.80
13332;DHT22;6735;51.456;12.626;2023-06-10T05:48:51;27.20;46.60
13332;DHT22;6735;51.456;12.626;2023-06-10T05:51:17;27.00;46.50
13332;DHT22;6735;51.456;12.626;2023-06-10T05:53:42;26.90;46.30
13332;DHT22;6735;51.456;12.626;2023-06-10T05:56:08;26.70;46.80
13332;DHT22;6735;51.456;12.626;2023-06-10T05:58:33;27.20;45.80
13332;DHT22;6735;51.456;12.626;2023-06-10T06:00:59;27.60;45.20
13332;DHT22;6735;51.456;12.626;2023-06-10T06:03:25;28.00;44.20
13332;DHT22;6735;51.456;12.626;2023-06-10T06:05:50;28.20;43.80
13332;DHT22;6735;51.456;12.626;2023-06-10T06:08:16;28.10;44.10
13332;DHT22;6735;51.456;12.626;2023-06-10T06:10:44;28.10;44.00
13332;DHT22;6735;51.456;12.626;2023-06-10T06:13:10;28.20;43.90
13332;DHT22;6735;51.456;12.626;2023-06-10T06:15:35;28.20;43.60
13332;DHT22;6735;51.456;12.626;2023-06-10T06:18:01;28.20;43.70
13332;DHT22;6735;51.456;12.626;2023-06-10T06:20:26;28.40;43.30
13332;DHT22;6735;51.456;12.626;2023-06-10T06:22:51;28.40;43.10
13332;DHT22;6735;51.456;12.626;2023-06-10T06:25:17;27.50;44.70
13332;DHT22;6735;51.456;12.626;2023-06-10T06:27:43;27.90;44.00
13332;DHT22;6735;51.456;12.626;2023-06-10T06:30:08;27.90;43.80
13332;DHT22;6735;51.456;12.626;2023-06-10T06:32:34;27.60;44.50
13332;DHT22;6735;51.456;12.626;2023-06-10T06:34:59;27.90;44.00
13332;DHT22;6735;51.456;12.626;2023-06-10T06:37:25;28.00;43.80
13332;DHT22;6735;51.456;12.626;2023-06-10T06:39:51;27.80;44.20
13332;DHT22;6735;51.456;12.626;2023-06-10T06:42:17;28.20;43.80
13332;DHT22;6735;51.456;12.626;2023-06-10T06:44:43;28.20;43.30
13332;DHT22;6735;51.456;12.626;2023-06-10T06:47:08;28.20;43.30
13332;DHT22;6735;51.456;12.626;2023-06-10T06:49:34;28.00;43.80
13332;DHT22;6735;51.456;12.626;2023-06-10T06:52:00;27.70;44.20
13332;DHT22;6735;51.456;12.626;2023-06-10T06:54:25;27.80;44.20
13332;DHT22;6735;51.456;12.626;2023-06-10T06:56:51;27.60;44.70
13332;DHT22;6735;51.456;12.626;2023-06-10T06:59:16;27.70;44.30
13332;DHT22;6735;51.456;12.626;2023-06-10T07:01:44;27.70;44.30
13332;DHT22;6735;51.456;12.626;2023-06-10T07:04:10;27.30;45.00
13332;DHT22;6735;51.456;12.626;2023-06-10T07:06:35;27.10;45.70
13332;DHT22;6735;51.456;12.626;2023-06-10T07:09:01;26.90;45.90
13332;DHT22;6735;51.456;12.626;2023-06-10T07:11:27;26.80;46.30
13332;DHT22;6735;51.456;12.626;2023-06-10T07:13:52;27.10;46.00
13332;DHT22;6735;51.456;12.626;2023-06-10T07:16:18;27.20;45.90
13332;DHT22;6735;51.456;12.626;2023-06-10T07:18:46;27.00;46.20
13332;DHT22;6735;51.456;12.626;2023-06-10T07:21:11;26.90;46.60
13332;DHT22;6735;51.456;12.626;2023-06-10T07:23:36;27.00;46.50
13332;DHT22;6735;51.456;12.626;2023-06-10T07:26:02;27.30;46.10
13332;DHT22;6735;51.456;12.626;2023-06-10T07:28:27;27.50;45.70
13332;DHT22;6735;51.456;12.626;2023-06-10T07:30:53;27.30;46.10
13332;DHT22;6735;51.456;12.626;2023-06-10T07:33:19;27.00;46.90
13332;DHT22;6735;51.456;12.626;2023-06-10T07:35:44;27.20;46.60
13332;DHT22;6735;51.456;12.626;2023-06-10T07:38:10;27.50;46.20
13332;DHT22;6735;51.456;12.626;2023-06-10T07:40:35;27.60;45.80
13332;DHT22;6735;51.456;12.626;2023-06-10T07:43:01;27.60;45.90
13332;DHT22;6735;51.456;12.626;2023-06-10T07:45:26;27.60;45.70
13332;DHT22;6735;51.456;12.626;2023-06-10T07:47:52;27.80;45.20
13332;DHT22;6735;51.456;12.626;2023-06-10T07:50:17;28.00;44.50
13332;DHT22;6735;51.456;12.626;2023-06-10T07:52:43;27.80;44.80
13332;DHT22;6735;51.456;12.626;2023-06-10T07:55:08;27.70;45.40
13332;DHT22;6735;51.456;12.626;2023-06-10T07:57:34;27.60;45.50
13332;DHT22;6735;51.456;12.626;2023-06-10T08:00:02;27.70;45.40
13332;DHT22;6735;51.456;12.626;2023-06-10T08:02:29;27.70;45.30
13332;DHT22;6735;51.456;12.626;2023-06-10T08:04:55;27.70;45.50
13332;DHT22;6735;51.456;12.626;2023-06-10T08:07:20;28.00;44.90
13332;DHT22;6735;51.456;12.626;2023-06-10T08:09:47;28.20;44.40
13332;DHT22;6735;51.456;12.626;2023-06-10T08:12:13;28.30;44.30
13332;DHT22;6735;51.456;12.626;2023-06-10T08:14:38;28.30;44.10
13332;DHT22;6735;51.456;12.626;2023-06-10T08:17:04;28.20;44.40
13332;DHT22;6735;51.456;12.626;2023-06-10T08:19:31;28.50;43.90
13332;DHT22;6735;51.456;12.626;2023-06-10T08:21:56;28.70;43.70
13332;DHT22;6735;51.456;12.626;2023-06-10T08:24:22;28.70;43.60
13332;DHT22;6735;51.456;12.626;2023-06-10T08:26:47;28.70;43.80
13332;DHT22;6735;51.456;12.626;2023-06-10T08:29:13;28.40;44.20
13332;DHT22;6735;51.456;12.626;2023-06-10T08:31:43;28.40;44.60
13332;DHT22;6735;51.456;12.626;2023-06-10T08:34:09;28.40;44.40
13332;DHT22;6735;51.456;12.626;2023-06-10T08:36:34;28.10;44.90
13332;DHT22;6735;51.456;12.626;2023-06-10T08:39:01;28.50;44.20
13332;DHT22;6735;51.456;12.626;2023-06-10T08:41:28;28.80;43.80
13332;DHT22;6735;51.456;12.626;2023-06-10T08:44:08;29.00;43.50
13332;DHT22;6735;51.456;12.626;2023-06-10T08:46:34;29.20;43.40
13332;DHT22;6735;51.456;12.626;2023-06-10T08:49:03;29.40;42.70
13332;DHT22;6735;51.456;12.626;2023-06-10T08:51:31;29.40;42.60
13332;DHT22;6735;51.456;12.626;2023-06-10T08:54:03;29.40;42.40
13332;DHT22;6735;51.456;12.626;2023-06-10T08:56:31;29.50;42.30
13332;DHT22;6735;51.456;12.626;2023-06-10T08:58:58;29.40;42.60
13332;DHT22;6735;51.456;12.626;2023-06-10T09:01:25;29.40;42.50
13332;DHT22;6735;51.456;12.626;2023-06-10T09:03:52;29.50;42.20
13332;DHT22;6735;51.456;12.626;2023-06-10T09:06:18;29.80;41.60
13332;DHT22;6735;51.456;12.626;2023-06-10T09:08:44;29.90;41.60
13332;DHT22;6735;51.456;12.626;2023-06-10T09:11:09;30.20;41.20
13332;DHT22;6735;51.456;12.626;2023-06-10T09:13:35;30.40;40.70
13332;DHT22;6735;51.456;12.626;2023-06-10T09:16:00;30.40;40.30
13332;DHT22;6735;51.456;12.626;2023-06-10T09:18:27;30.40;39.80
13332;DHT22;6735;51.456;12.626;2023-06-10T09:20:53;30.30;40.40
13332;DHT22;6735;51.456;12.626;2023-06-10T09:23:18;30.60;40.10
13332;DHT22;6735;51.456;12.626;2023-06-10T09:25:44;30.70;39.40
13332;DHT22;6735;51.456;12.626;2023-06-10T09:28:14;30.80;39.20
13332;DHT22;6735;51.456;12.626;2023-06-10T09:30:40;31.00;38.80
13332;DHT22;6735;51.456;12.626;2023-06-10T09:33:13;30.70;39.30
13332;DHT22;6735;51.456;12.626;2023-06-10T09:35:48;30.70;38.70
13332;DHT22;6735;51.456;12.626;2023-06-10T09:38:21;30.40;39.30
13332;DHT22;6735;51.456;12.626;2023-06-10T09:40:51;30.60;39.20
13332;DHT22;6735;51.456;12.626;2023-06-10T09:43:16;30.80;38.90
13332;DHT22;6735;51.456;12.626;2023-06-10T09:45:42;30.90;38.80
13332;DHT22;6735;51.456;12.626;2023-06-10T09:48:08;31.00;38.70
13332;DHT22;6735;51.456;12.626;2023-06-10T09:50:34;31.10;38.20
13332;DHT22;6735;51.456;12.626;2023-06-10T09:53:03;31.00;38.30
13332;DHT22;6735;51.456;12.626;2023-06-10T09:55:33;30.90;38.50
13332;DHT22;6735;51.456;12.626;2023-06-10T09:57:59;30.90;38.50
13332;DHT22;6735;51.456;12.626;2023-06-10T10:00:24;31.00;38.50
13332;DHT22;6735;51.456;12.626;2023-06-10T10:02:52;31.00;38.30
13332;DHT22;6735;51.456;12.626;2023-06-10T10:05:20;31.00;38.00
13332;DHT22;6735;51.456;12.626;2023-06-10T10:07:47;31.10;38.00
13332;DHT22;6735;51.456;12.626;2023-06-10T10:10:14;31.20;38.10
13332;DHT22;6735;51.456;12.626;2023-06-10T10:12:41;30.80;38.70
13332;DHT22;6735;51.456;12.626;2023-06-10T10:15:09;30.60;38.80
13332;DHT22;6735;51.456;12.626;2023-06-10T10:17:40;30.80;38.40
13332;DHT22;6735;51.456;12.626;2023-06-10T10:20:13;31.00;37.90
13332;DHT22;6735;51.456;12.626;2023-06-10T10:22:41;31.10;38.10
13332;DHT22;6735;51.456;12.626;2023-06-10T10:25:11;31.50;37.70
13332;DHT22;6735;51.456;12.626;2023-06-10T10:27:44;31.30;37.70
13332;DHT22;6735;51.456;12.626;2023-06-10T10:30:11;31.30;36.50
13332;DHT22;6735;51.456;12.626;2023-06-10T10:32:43;30.90;38.40
13332;DHT22;6735;51.456;12.626;2023-06-10T10:35:17;30.60;38.70
13332;DHT22;6735;51.456;12.626;2023-06-10T10:37:43;30.70;38.70
13332;DHT22;6735;51.456;12.626;2023-06-10T10:40:10;30.70;38.80
13332;DHT22;6735;51.456;12.626;2023-06-10T10:42:36;30.40;38.80
13332;DHT22;6735;51.456;12.626;2023-06-10T10:45:04;30.50;38.80
13332;DHT22;6735;51.456;12.626;2023-06-10T10:47:30;30.70;38.60
13332;DHT22;6735;51.456;12.626;2023-06-10T10:49:56;30.60;38.60
13332;DHT22;6735;51.456;12.626;2023-06-10T10:52:43;30.20;38.80
13332;DHT22;6735;51.456;12.626;2023-06-10T10:55:12;30.30;38.90
13332;DHT22;6735;51.456;12.626;2023-06-10T10:57:38;30.70;38.40
13332;DHT22;6735;51.456;12.626;2023-06-10T11:00:05;30.70;38.50
13332;DHT22;6735;51.456;12.626;2023-06-10T11:02:41;30.20;39.20
13332;DHT22;6735;51.456;12.626;2023-06-10T11:05:18;30.60;38.40
13332;DHT22;6735;51.456;12.626;2023-06-10T11:07:55;31.00;37.90
13332;DHT22;6735;51.456;12.626;2023-06-10T11:10:34;31.20;37.70
13332;DHT22;6735;51.456;12.626;2023-06-10T11:13:05;31.30;36.90
13332;DHT22;6735;51.456;12.626;2023-06-10T11:15:32;31.20;37.60
13332;DHT22;6735;51.456;12.626;2023-06-10T11:18:11;31.20;38.00
13332;DHT22;6735;51.456;12.626;2023-06-10T11:31:19;31.10;37.20
13332;DHT22;6735;51.456;12.626;2023-06-10T11:33:47;31.40;36.50
13332;DHT22;6735;51.456;12.626;2023-06-10T11:36:13;31.70;35.10
13332;DHT22;6735;51.456;12.626;2023-06-10T11:38:39;32.00;35.00
13332;DHT22;6735;51.456;12.626;2023-06-10T11:41:05;32.40;34.50
13332;DHT22;6735;51.456;12.626;2023-06-10T11:43:31;31.90;34.20
13332;DHT22;6735;51.456;12.626;2023-06-10T11:45:57;31.80;34.30
13332;DHT22;6735;51.456;12.626;2023-06-10T11:48:22;31.80;34.20
13332;DHT22;6735;51.456;12.626;2023-06-10T11:50:48;32.00;33.90
13332;DHT22;6735;51.456;12.626;2023-06-10T11:53:13;32.10;34.10
13332;DHT22;6735;51.456;12.626;2023-06-10T11:58:21;32.00;33.30
13332;DHT22;6735;51.456;12.626;2023-06-10T12:00:51;31.70;34.20
13332;DHT22;6735;51.456;12.626;2023-06-10T12:03:18;31.40;34.20
13332;DHT22;6735;51.456;12.626;2023-06-10T12:05:58;30.90;34.00
13332;DHT22;6735;51.456;12.626;2023-06-10T12:08:24;30.30;30.60
13332;DHT22;6735;51.456;12.626;2023-06-10T12:10:50;29.70;31.70
13332;DHT22;6735;51.456;12.626;2023-06-10T12:13:15;29.90;31.10
13332;DHT22;6735;51.456;12.626;2023-06-10T12:15:43;29.70;30.90
13332;DHT22;6735;51.456;12.626;2023-06-10T12:18:16;29.60;30.40
13332;DHT22;6735;51.456;12.626;2023-06-10T12:20:42;29.40;30.00
13332;DHT22;6735;51.456;12.626;2023-06-10T12:23:11;29.50;30.90
13332;DHT22;6735;51.456;12.626;2023-06-10T12:25:37;29.80;31.40
13332;DHT22;6735;51.456;12.626;2023-06-10T12:28:04;30.20;31.50
13332;DHT22;6735;51.456;12.626;2023-06-10T12:30:30;30.30;32.30
13332;DHT22;6735;51.456;12.626;2023-06-10T12:32:56;30.20;32.90
13332;DHT22;6735;51.456;12.626;2023-06-10T12:35:23;30.30;32.90
13332;DHT22;6735;51.456;12.626;2023-06-10T12:38:02;30.70;33.00
13332;DHT22;6735;51.456;12.626;2023-06-10T12:40:34;30.90;34.20
13332;DHT22;6735;51.456;12.626;2023-06-10T12:43:00;30.40;34.30
13332;DHT22;6735;51.456;12.626;2023-06-10T12:45:28;30.30;34.60
13332;DHT22;6735;51.456;12.626;2023-06-10T12:48:08;30.40;34.70
13332;DHT22;6735;51.456;12.626;2023-06-10T12:50:38;30.50;35.30
13332;DHT22;6735;51.456;12.626;2023-06-10T12:53:04;30.50;35.00
13332;DHT22;6735;51.456;12.626;2023-06-10T12:55:29;30.60;35.30
13332;DHT22;6735;51.456;12.626;2023-06-10T12:57:55;30.60;35.90
13332;DHT22;6735;51.456;12.626;2023-06-10T13:00:22;30.40;36.10
13332;DHT22;6735;51.456;12.626;2023-06-10T13:02:51;30.30;36.10
13332;DHT22;6735;51.456;12.626;2023-06-10T13:05:18;30.00;36.70
13332;DHT22;6735;51.456;12.626;2023-06-10T13:07:44;29.40;37.50
13332;DHT22;6735;51.456;12.626;2023-06-10T13:10:10;29.10;37.80
13332;DHT22;6735;51.456;12.626;2023-06-10T13:12:35;28.90;37.80
13332;DHT22;6735;51.456;12.626;2023-06-10T13:15:01;28.70;38.30
13332;DHT22;6735;51.456;12.626;2023-06-10T13:17:27;28.10;39.40
13332;DHT22;6735;51.456;12.626;2023-06-10T13:19:53;27.70;39.80
13332;DHT22;6735;51.456;12.626;2023-06-10T13:22:18;27.40;40.60
13332;DHT22;6735;51.456;12.626;2023-06-10T13:24:45;27.30;40.90
13332;DHT22;6735;51.456;12.626;2023-06-10T13:27:12;27.10;41.00
13332;DHT22;6735;51.456;12.626;2023-06-10T13:29:39;26.90;41.30
13332;DHT22;6735;51.456;12.626;2023-06-10T13:32:05;26.90;41.00
13332;DHT22;6735;51.456;12.626;2023-06-10T13:34:31;26.70;41.10
13332;DHT22;6735;51.456;12.626;2023-06-10T13:36:56;26.60;41.20
13332;DHT22;6735;51.456;12.626;2023-06-10T13:39:22;26.60;41.60
13332;DHT22;6735;51.456;12.626;2023-06-10T13:41:47;26.60;41.80
13332;DHT22;6735;51.456;12.626;2023-06-10T13:44:13;26.60;41.70
13332;DHT22;6735;51.456;12.626;2023-06-10T13:46:38;26.70;41.50
13332;DHT22;6735;51.456;12.626;2023-06-10T13:49:04;27.00;41.30
13332;DHT22;6735;51.456;12.626;2023-06-10T13:51:29;27.10;41.00
13332;DHT22;6735;51.456;12.626;2023-06-10T13:53:55;27.20;40.70
13332;DHT22;6735;51.456;12.626;2023-06-10T13:56:20;27.30;40.30
13332;DHT22;6735;51.456;12.626;2023-06-10T13:58:45;27.40;39.60
13332;DHT22;6735;51.456;12.626;2023-06-10T14:01:11;27.60;39.80
13332;DHT22;6735;51.456;12.626;2023-06-10T14:03:37;27.90;39.50
13332;DHT22;6735;51.456;12.626;2023-06-10T14:06:02;27.90;39.10
13332;DHT22;6735;51.456;12.626;2023-06-10T14:08:28;27.70;39.60
13332;DHT22;6735;51.456;12.626;2023-06-10T14:10:54;27.70;39.50
13332;DHT22;6735;51.456;12.626;2023-06-10T14:13:19;27.60;39.40
13332;DHT22;6735;51.456;12.626;2023-06-10T14:15:45;27.60;39.30
13332;DHT22;6735;51.456;12.626;2023-06-10T14:18:10;27.70;38.90
13332;DHT22;6735;51.456;12.626;2023-06-10T14:20:36;28.20;38.00
13332;DHT22;6735;51.456;12.626;2023-06-10T14:23:02;28.60;37.00
13332;DHT22;6735;51.456;12.626;2023-06-10T14:25:27;28.90;36.50
13332;DHT22;6735;51.456;12.626;2023-06-10T14:27:53;29.10;36.40
13332;DHT22;6735;51.456;12.626;2023-06-10T14:30:18;29.10;36.20
13332;DHT22;6735;51.456;12.626;2023-06-10T14:32:44;29.20;35.70
13332;DHT22;6735;51.456;12.626;2023-06-10T14:35:09;29.20;36.10
13332;DHT22;6735;51.456;12.626;2023-06-10T14:37:35;29.20;36.00
13332;DHT22;6735;51.456;12.626;2023-06-10T14:40:02;29.10;36.60
13332;DHT22;6735;51.456;12.626;2023-06-10T14:42:28;28.80;37.30
13332;DHT22;6735;51.456;12.626;2023-06-10T14:44:53;28.60;37.50
13332;DHT22;6735;51.456;12.626;2023-06-10T14:47:19;28.70;37.50
13332;DHT22;6735;51.456;12.626;2023-06-10T14:49:44;28.70;37.60
13332;DHT22;6735;51.456;12.626;2023-06-10T14:52:10;28.60;38.00
13332;DHT22;6735;51.456;12.626;2023-06-10T14:54:35;29.00;37.40
13332;DHT22;6735;51.456;12.626;2023-06-10T14:57:01;29.30;36.70
13332;DHT22;6735;51.456;12.626;2023-06-10T14:59:26;29.40;36.60
13332;DHT22;6735;51.456;12.626;2023-06-10T15:01:52;29.40;35.90
13332;DHT22;6735;51.456;12.626;2023-06-10T15:04:17;29.50;36.10
13332;DHT22;6735;51.456;12.626;2023-06-10T15:06:43;29.40;36.00
13332;DHT22;6735;51.456;12.626;2023-06-10T15:09:08;29.40;36.00
13332;DHT22;6735;51.456;12.626;2023-06-10T15:11:34;29.20;36.00
13332;DHT22;6735;51.456;12.626;2023-06-10T15:14:00;29.20;36.00
13332;DHT22;6735;51.456;12.626;2023-06-10T15:16:25;29.10;36.70
13332;DHT22;6735;51.456;12.626;2023-06-10T15:18:51;28.90;37.80
13332;DHT22;6735;51.456;12.626;2023-06-10T15:21:16;28.80;38.20
13332;DHT22;6735;51.456;12.626;2023-06-10T15:23:42;28.70;38.60
13332;DHT22;6735;51.456;12.626;2023-06-10T15:26:07;28.70;38.90
13332;DHT22;6735;51.456;12.626;2023-06-10T15:28:33;28.70;39.00
13332;DHT22;6735;51.456;12.626;2023-06-10T15:30:58;28.80;39.00
13332;DHT22;6735;51.456;12.626;2023-06-10T15:33:24;29.10;39.10
13332;DHT22;6735;51.456;12.626;2023-06-10T15:35:50;29.20;39.00
13332;DHT22;6735;51.456;12.626;2023-06-10T15:38:17;29.10;39.00
13332;DHT22;6735;51.456;12.626;2023-06-10T15:40:43;29.20;38.70
13332;DHT22;6735;51.456;12.626;2023-06-10T15:43:08;29.30;38.40